Clayton, Georgia
Current Conditions -  °F | °C
As of 4:35 AM on Saturday 29 Nov 2014 (Local Time) from KTOC Reporting Station
Clear Clear  
Wind Chill: -2°   Ceiling: Unl
Heat Index: -2°   Visibility: 10mi
Dew Point: -4°   Wind: 0mph
Humidity: 86%   Direction: NA
Pressure: 30.25"   Gusts: NA
Location:  34.88°N, 83.4°W
Report Text: KTOC 290935Z AUTO 00000KT 10SM CLR M02/M04 A3025 RMK AO2 T10201040
Loading
Personal Weather Stations






























Interactive Weather Map New forecast layout! Learn more

10-Day Weather Forecast

Advertisements
Track Severe Weather on mobile